sensor_id;sensor_type;location;lat;lon;timestamp;pressure;altitude;pressure_sealevel;temperature;humidity
16481;BME280;44634;54.110;12.138;2023-03-04T00:02:12;101143.66;;;6.40;100.00
16481;BME280;44634;54.110;12.138;2023-03-04T00:04:40;101138.75;;;6.21;100.00
16481;BME280;44634;54.110;12.138;2023-03-04T00:07:07;101149.16;;;5.96;100.00
16481;BME280;44634;54.110;12.138;2023-03-04T00:09:35;101143.41;;;6.31;100.00
16481;BME280;44634;54.110;12.138;2023-03-04T00:12:03;101129.50;;;6.55;100.00
16481;BME280;44634;54.110;12.138;2023-03-04T00:14:33;101143.38;;;6.57;100.00
16481;BME280;44634;54.110;12.138;2023-03-04T00:17:03;101138.13;;;6.57;100.00
16481;BME280;44634;54.110;12.138;2023-03-04T00:19:30;101131.66;;;6.36;100.00
16481;BME280;44634;54.110;12.138;2023-03-04T00:21:58;101129.66;;;6.67;100.00
16481;BME280;44634;54.110;12.138;2023-03-04T00:24:26;101128.84;;;6.39;100.00
16481;BME280;44634;54.110;12.138;2023-03-04T00:26:54;101129.81;;;6.64;100.00
16481;BME280;44634;54.110;12.138;2023-03-04T00:29:21;101136.84;;;6.50;100.00
16481;BME280;44634;54.110;12.138;2023-03-04T00:31:49;101107.16;;;6.23;100.00
16481;BME280;44634;54.110;12.138;2023-03-04T00:34:18;101128.69;;;6.68;100.00
16481;BME280;44634;54.110;12.138;2023-03-04T00:36:46;101131.59;;;6.50;100.00
16481;BME280;44634;54.110;12.138;2023-03-04T00:39:14;101137.47;;;6.14;100.00
16481;BME280;44634;54.110;12.138;2023-03-04T00:41:42;101126.69;;;6.59;100.00
16481;BME280;44634;54.110;12.138;2023-03-04T00:44:10;101127.72;;;6.56;100.00
16481;BME280;44634;54.110;12.138;2023-03-04T00:46:37;101122.72;;;6.66;100.00
16481;BME280;44634;54.110;12.138;2023-03-04T00:49:05;101114.56;;;6.43;100.00
16481;BME280;44634;54.110;12.138;2023-03-04T00:51:34;101102.91;;;6.47;100.00
16481;BME280;44634;54.110;12.138;2023-03-04T00:54:02;101115.25;;;6.72;100.00
16481;BME280;44634;54.110;12.138;2023-03-04T00:56:30;101112.06;;;6.54;100.00
16481;BME280;44634;54.110;12.138;2023-03-04T00:58:58;101110.31;;;6.68;100.00
16481;BME280;44634;54.110;12.138;2023-03-04T01:01:26;101096.34;;;6.67;100.00
16481;BME280;44634;54.110;12.138;2023-03-04T01:03:53;101109.28;;;6.83;100.00
16481;BME280;44634;54.110;12.138;2023-03-04T01:06:21;101102.44;;;6.80;100.00
16481;BME280;44634;54.110;12.138;2023-03-04T01:08:50;101102.00;;;6.86;100.00
16481;BME280;44634;54.110;12.138;2023-03-04T01:11:18;101096.09;;;7.08;100.00
16481;BME280;44634;54.110;12.138;2023-03-04T01:13:46;101103.25;;;6.94;100.00
16481;BME280;44634;54.110;12.138;2023-03-04T01:16:14;101110.31;;;7.06;100.00
16481;BME280;44634;54.110;12.138;2023-03-04T01:18:42;101104.09;;;6.94;100.00
16481;BME280;44634;54.110;12.138;2023-03-04T01:21:10;101090.53;;;7.13;100.00
16481;BME280;44634;54.110;12.138;2023-03-04T01:23:37;101084.44;;;7.25;100.00
16481;BME280;44634;54.110;12.138;2023-03-04T01:26:07;101097.25;;;7.42;100.00
16481;BME280;44634;54.110;12.138;2023-03-04T01:28:34;101102.34;;;6.95;100.00
16481;BME280;44634;54.110;12.138;2023-03-04T01:31:03;101098.69;;;7.46;100.00
16481;BME280;44634;54.110;12.138;2023-03-04T01:33:31;101100.75;;;7.18;100.00
16481;BME280;44634;54.110;12.138;2023-03-04T01:35:58;101107.34;;;7.23;100.00
16481;BME280;44634;54.110;12.138;2023-03-04T01:38:26;101108.09;;;7.25;100.00
16481;BME280;44634;54.110;12.138;2023-03-04T01:40:54;101090.09;;;7.19;100.00
16481;BME280;44634;54.110;12.138;2023-03-04T01:43:24;101097.38;;;7.28;100.00
16481;BME280;44634;54.110;12.138;2023-03-04T01:45:54;101102.28;;;7.33;100.00
16481;BME280;44634;54.110;12.138;2023-03-04T01:48:25;101100.34;;;7.11;100.00
16481;BME280;44634;54.110;12.138;2023-03-04T01:50:54;101092.00;;;7.17;100.00
16481;BME280;44634;54.110;12.138;2023-03-04T01:53:24;101094.59;;;7.42;100.00
16481;BME280;44634;54.110;12.138;2023-03-04T01:55:54;101094.72;;;7.41;100.00
16481;BME280;44634;54.110;12.138;2023-03-04T01:58:25;101077.25;;;7.40;100.00
16481;BME280;44634;54.110;12.138;2023-03-04T02:00:55;101087.47;;;7.32;100.00
16481;BME280;44634;54.110;12.138;2023-03-04T02:03:23;101077.31;;;7.51;100.00
16481;BME280;44634;54.110;12.138;2023-03-04T02:05:52;101080.16;;;7.48;100.00
16481;BME280;44634;54.110;12.138;2023-03-04T02:08:22;101063.38;;;7.38;100.00
16481;BME280;44634;54.110;12.138;2023-03-04T02:10:51;101072.88;;;7.52;100.00
16481;BME280;44634;54.110;12.138;2023-03-04T02:13:19;101060.38;;;7.55;100.00
16481;BME280;44634;54.110;12.138;2023-03-04T02:15:48;101076.72;;;7.35;100.00
16481;BME280;44634;54.110;12.138;2023-03-04T02:18:17;101077.19;;;7.03;100.00
16481;BME280;44634;54.110;12.138;2023-03-04T02:20:55;101070.09;;;7.42;100.00
16481;BME280;44634;54.110;12.138;2023-03-04T02:23:29;101066.88;;;7.13;100.00
16481;BME280;44634;54.110;12.138;2023-03-04T02:26:22;101068.81;;;7.47;100.00
16481;BME280;44634;54.110;12.138;2023-03-04T02:28:52;101054.38;;;7.53;100.00
16481;BME280;44634;54.110;12.138;2023-03-04T02:31:23;101060.25;;;7.57;100.00
16481;BME280;44634;54.110;12.138;2023-03-04T02:33:53;101054.72;;;7.36;100.00
16481;BME280;44634;54.110;12.138;2023-03-04T02:36:22;101052.25;;;7.58;100.00
16481;BME280;44634;54.110;12.138;2023-03-04T02:38:51;101066.44;;;7.19;100.00
16481;BME280;44634;54.110;12.138;2023-03-04T02:41:23;101059.34;;;7.45;100.00
16481;BME280;44634;54.110;12.138;2023-03-04T02:43:54;101049.22;;;7.52;100.00
16481;BME280;44634;54.110;12.138;2023-03-04T02:46:22;101057.56;;;7.45;100.00
16481;BME280;44634;54.110;12.138;2023-03-04T02:48:51;101056.47;;;7.85;100.00
16481;BME280;44634;54.110;12.138;2023-03-04T02:51:19;101068.47;;;7.52;100.00
16481;BME280;44634;54.110;12.138;2023-03-04T02:53:46;101050.97;;;7.88;100.00
16481;BME280;44634;54.110;12.138;2023-03-04T02:56:14;101067.28;;;7.93;100.00
16481;BME280;44634;54.110;12.138;2023-03-04T02:58:43;101065.59;;;7.68;100.00
16481;BME280;44634;54.110;12.138;2023-03-04T03:01:11;101062.63;;;7.72;100.00
16481;BME280;44634;54.110;12.138;2023-03-04T03:03:39;101062.34;;;7.88;100.00
16481;BME280;44634;54.110;12.138;2023-03-04T03:06:07;101057.31;;;7.49;100.00
16481;BME280;44634;54.110;12.138;2023-03-04T03:08:35;101049.66;;;8.17;100.00
16481;BME280;44634;54.110;12.138;2023-03-04T03:11:03;101065.31;;;7.84;100.00
16481;BME280;44634;54.110;12.138;2023-03-04T03:13:31;101066.31;;;7.70;100.00
16481;BME280;44634;54.110;12.138;2023-03-04T03:16:00;101054.22;;;8.15;100.00
16481;BME280;44634;54.110;12.138;2023-03-04T03:18:28;101044.09;;;7.98;100.00
16481;BME280;44634;54.110;12.138;2023-03-04T03:20:55;101052.94;;;7.73;100.00
16481;BME280;44634;54.110;12.138;2023-03-04T03:23:23;101049.63;;;7.58;100.00
16481;BME280;44634;54.110;12.138;2023-03-04T03:25:51;101043.53;;;7.58;100.00
16481;BME280;44634;54.110;12.138;2023-03-04T03:28:18;101059.09;;;7.24;100.00
16481;BME280;44634;54.110;12.138;2023-03-04T03:30:46;101032.78;;;7.61;100.00
16481;BME280;44634;54.110;12.138;2023-03-04T03:33:15;101028.13;;;7.64;100.00
16481;BME280;44634;54.110;12.138;2023-03-04T03:35:43;101027.09;;;7.78;100.00
16481;BME280;44634;54.110;12.138;2023-03-04T03:38:11;101030.47;;;7.80;100.00
16481;BME280;44634;54.110;12.138;2023-03-04T03:40:39;101027.66;;;7.94;100.00
16481;BME280;44634;54.110;12.138;2023-03-04T03:43:06;101036.84;;;7.65;100.00
16481;BME280;44634;54.110;12.138;2023-03-04T03:45:34;101024.94;;;7.72;100.00
16481;BME280;44634;54.110;12.138;2023-03-04T03:48:02;101016.38;;;7.81;100.00
16481;BME280;44634;54.110;12.138;2023-03-04T03:50:31;101020.59;;;7.95;100.00
16481;BME280;44634;54.110;12.138;2023-03-04T03:52:59;101024.03;;;7.84;100.00
16481;BME280;44634;54.110;12.138;2023-03-04T03:55:27;101024.59;;;7.76;100.00
16481;BME280;44634;54.110;12.138;2023-03-04T03:57:55;101024.31;;;7.92;100.00
16481;BME280;44634;54.110;12.138;2023-03-04T04:00:23;101024.75;;;7.62;100.00
16481;BME280;44634;54.110;12.138;2023-03-04T04:02:51;101008.06;;;7.74;100.00
16481;BME280;44634;54.110;12.138;2023-03-04T04:05:19;101023.69;;;7.65;100.00
16481;BME280;44634;54.110;12.138;2023-03-04T04:07:49;101015.97;;;7.74;100.00
16481;BME280;44634;54.110;12.138;2023-03-04T04:10:19;101017.53;;;7.77;100.00
16481;BME280;44634;54.110;12.138;2023-03-04T04:12:47;101010.53;;;7.89;100.00
16481;BME280;44634;54.110;12.138;2023-03-04T04:15:15;101025.19;;;7.32;100.00
16481;BME280;44634;54.110;12.138;2023-03-04T04:17:43;101017.16;;;7.70;100.00
16481;BME280;44634;54.110;12.138;2023-03-04T04:20:11;101018.63;;;8.10;100.00
16481;BME280;44634;54.110;12.138;2023-03-04T04:22:38;101038.81;;;7.74;100.00
16481;BME280;44634;54.110;12.138;2023-03-04T04:25:08;101026.06;;;7.57;100.00
16481;BME280;44634;54.110;12.138;2023-03-04T04:27:36;101042.84;;;7.30;100.00
16481;BME280;44634;54.110;12.138;2023-03-04T04:30:05;101025.03;;;7.46;100.00
16481;BME280;44634;54.110;12.138;2023-03-04T04:32:33;101035.06;;;7.41;100.00
16481;BME280;44634;54.110;12.138;2023-03-04T04:35:01;101046.38;;;7.55;100.00
16481;BME280;44634;54.110;12.138;2023-03-04T04:37:30;101041.97;;;7.55;100.00
16481;BME280;44634;54.110;12.138;2023-03-04T04:39:57;101047.03;;;7.45;100.00
16481;BME280;44634;54.110;12.138;2023-03-04T04:42:27;101067.31;;;7.56;100.00
16481;BME280;44634;54.110;12.138;2023-03-04T04:44:55;101098.84;;;7.20;100.00
16481;BME280;44634;54.110;12.138;2023-03-04T04:47:23;101084.50;;;7.36;100.00
16481;BME280;44634;54.110;12.138;2023-03-04T04:49:51;101099.50;;;6.98;100.00
16481;BME280;44634;54.110;12.138;2023-03-04T04:52:18;101093.34;;;7.23;100.00
16481;BME280;44634;54.110;12.138;2023-03-04T04:54:46;101119.09;;;7.56;100.00
16481;BME280;44634;54.110;12.138;2023-03-04T04:57:14;101143.31;;;7.48;100.00
16481;BME280;44634;54.110;12.138;2023-03-04T04:59:43;101162.56;;;7.23;100.00
16481;BME280;44634;54.110;12.138;2023-03-04T05:02:11;101161.94;;;7.45;100.00
16481;BME280;44634;54.110;12.138;2023-03-04T05:04:39;101174.03;;;7.47;100.00
16481;BME280;44634;54.110;12.138;2023-03-04T05:07:06;101166.78;;;7.00;100.00
16481;BME280;44634;54.110;12.138;2023-03-04T05:09:34;101159.94;;;6.85;100.00
16481;BME280;44634;54.110;12.138;2023-03-04T05:12:02;101170.34;;;6.86;100.00
16481;BME280;44634;54.110;12.138;2023-03-04T05:14:30;101171.47;;;6.70;100.00
16481;BME280;44634;54.110;12.138;2023-03-04T05:16:59;101166.16;;;6.84;100.00
16481;BME280;44634;54.110;12.138;2023-03-04T05:19:27;101162.13;;;6.66;100.00
16481;BME280;44634;54.110;12.138;2023-03-04T05:21:55;101160.78;;;6.85;100.00
16481;BME280;44634;54.110;12.138;2023-03-04T05:24:23;101164.25;;;6.46;100.00
16481;BME280;44634;54.110;12.138;2023-03-04T05:26:50;101152.13;;;6.71;100.00
16481;BME280;44634;54.110;12.138;2023-03-04T05:29:19;101160.22;;;6.68;100.00
16481;BME280;44634;54.110;12.138;2023-03-04T05:31:46;101155.47;;;6.60;100.00
16481;BME280;44634;54.110;12.138;2023-03-04T05:34:16;101176.44;;;6.20;100.00
16481;BME280;44634;54.110;12.138;2023-03-04T05:36:43;101158.38;;;6.43;100.00
16481;BME280;44634;54.110;12.138;2023-03-04T05:39:11;101171.88;;;6.24;100.00
16481;BME280;44634;54.110;12.138;2023-03-04T05:41:39;101160.47;;;6.50;100.00
16481;BME280;44634;54.110;12.138;2023-03-04T05:44:06;101170.41;;;6.60;100.00
16481;BME280;44634;54.110;12.138;2023-03-04T05:46:35;101169.56;;;6.32;100.00
16481;BME280;44634;54.110;12.138;2023-03-04T05:49:02;101156.16;;;6.37;100.00
16481;BME280;44634;54.110;12.138;2023-03-04T05:51:32;101135.22;;;6.22;100.00
16481;BME280;44634;54.110;12.138;2023-03-04T05:53:59;101148.63;;;6.57;100.00
16481;BME280;44634;54.110;12.138;2023-03-04T05:56:27;101142.84;;;6.52;100.00
16481;BME280;44634;54.110;12.138;2023-03-04T05:58:56;101172.69;;;6.51;100.00
16481;BME280;44634;54.110;12.138;2023-03-04T06:01:25;101159.25;;;6.56;100.00
16481;BME280;44634;54.110;12.138;2023-03-04T06:03:52;101155.72;;;6.70;100.00
16481;BME280;44634;54.110;12.138;2023-03-04T06:06:20;101173.38;;;6.68;100.00
16481;BME280;44634;54.110;12.138;2023-03-04T06:08:49;101171.72;;;7.05;100.00
16481;BME280;44634;54.110;12.138;2023-03-04T06:11:17;101177.50;;;6.84;100.00
16481;BME280;44634;54.110;12.138;2023-03-04T06:13:45;101174.22;;;6.68;100.00
16481;BME280;44634;54.110;12.138;2023-03-04T06:16:13;101169.41;;;7.00;100.00
16481;BME280;44634;54.110;12.138;2023-03-04T06:18:41;101179.38;;;6.82;100.00
16481;BME280;44634;54.110;12.138;2023-03-04T06:21:08;101181.88;;;6.71;100.00
16481;BME280;44634;54.110;12.138;2023-03-04T06:23:36;101177.59;;;7.08;100.00
16481;BME280;44634;54.110;12.138;2023-03-04T06:26:05;101187.88;;;6.73;100.00
16481;BME280;44634;54.110;12.138;2023-03-04T06:28:35;101189.75;;;6.71;100.00
16481;BME280;44634;54.110;12.138;2023-03-04T06:31:03;101177.50;;;6.84;100.00
16481;BME280;44634;54.110;12.138;2023-03-04T06:33:31;101184.31;;;6.47;100.00
16481;BME280;44634;54.110;12.138;2023-03-04T06:35:59;101174.69;;;6.61;100.00
16481;BME280;44634;54.110;12.138;2023-03-04T06:38:27;101183.66;;;6.71;100.00
16481;BME280;44634;54.110;12.138;2023-03-04T06:40:54;101164.34;;;6.84;100.00
16481;BME280;44634;54.110;12.138;2023-03-04T06:43:24;101189.59;;;6.87;100.00
16481;BME280;44634;54.110;12.138;2023-03-04T06:45:52;101179.28;;;6.44;100.00
16481;BME280;44634;54.110;12.138;2023-03-04T06:48:19;101174.56;;;6.49;100.00
16481;BME280;44634;54.110;12.138;2023-03-04T06:50:47;101188.13;;;7.08;100.00
16481;BME280;44634;54.110;12.138;2023-03-04T06:53:15;101198.38;;;6.73;100.00
16481;BME280;44634;54.110;12.138;2023-03-04T06:55:43;101198.66;;;6.96;100.00
16481;BME280;44634;54.110;12.138;2023-03-04T06:58:10;101208.16;;;6.71;100.00
16481;BME280;44634;54.110;12.138;2023-03-04T07:00:39;101190.22;;;6.91;100.00
16481;BME280;44634;54.110;12.138;2023-03-04T07:03:08;101226.25;;;7.28;100.00
16481;BME280;44634;54.110;12.138;2023-03-04T07:05:35;101211.47;;;6.88;100.00
16481;BME280;44634;54.110;12.138;2023-03-04T07:08:03;101212.13;;;7.16;100.00
16481;BME280;44634;54.110;12.138;2023-03-04T07:10:32;101227.88;;;6.64;100.00
16481;BME280;44634;54.110;12.138;2023-03-04T07:13:00;101225.72;;;7.10;100.00
16481;BME280;44634;54.110;12.138;2023-03-04T07:15:28;101233.50;;;6.72;100.00
16481;BME280;44634;54.110;12.138;2023-03-04T07:17:57;101236.81;;;6.35;100.00
16481;BME280;44634;54.110;12.138;2023-03-04T07:20:25;101224.09;;;6.95;100.00
16481;BME280;44634;54.110;12.138;2023-03-04T07:22:56;101228.63;;;7.06;100.00
16481;BME280;44634;54.110;12.138;2023-03-04T07:25:23;101223.63;;;6.76;100.00
16481;BME280;44634;54.110;12.138;2023-03-04T07:27:51;101247.59;;;7.11;100.00
16481;BME280;44634;54.110;12.138;2023-03-04T07:30:19;101256.81;;;7.04;100.00
16481;BME280;44634;54.110;12.138;2023-03-04T07:32:47;101245.97;;;7.08;100.00
16481;BME280;44634;54.110;12.138;2023-03-04T07:35:16;101249.56;;;7.20;100.00
16481;BME280;44634;54.110;12.138;2023-03-04T07:37:44;101263.56;;;7.21;100.00
16481;BME280;44634;54.110;12.138;2023-03-04T07:40:12;101278.69;;;7.04;100.00
16481;BME280;44634;54.110;12.138;2023-03-04T07:42:40;101287.38;;;6.92;100.00
16481;BME280;44634;54.110;12.138;2023-03-04T07:45:09;101282.03;;;7.06;100.00
16481;BME280;44634;54.110;12.138;2023-03-04T07:47:37;101285.91;;;7.28;100.00
16481;BME280;44634;54.110;12.138;2023-03-04T07:50:08;101308.66;;;6.75;100.00
16481;BME280;44634;54.110;12.138;2023-03-04T07:52:48;101289.06;;;7.33;100.00
16481;BME280;44634;54.110;12.138;2023-03-04T07:55:18;101290.13;;;7.56;100.00
16481;BME280;44634;54.110;12.138;2023-03-04T07:57:46;101299.72;;;7.57;100.00
16481;BME280;44634;54.110;12.138;2023-03-04T08:00:15;101332.19;;;7.30;100.00
16481;BME280;44634;54.110;12.138;2023-03-04T08:02:43;101327.94;;;6.88;100.00
16481;BME280;44634;54.110;12.138;2023-03-04T08:05:11;101308.28;;;7.21;100.00
16481;BME280;44634;54.110;12.138;2023-03-04T08:07:40;101325.13;;;7.31;100.00
16481;BME280;44634;54.110;12.138;2023-03-04T08:10:09;101334.94;;;7.02;100.00
16481;BME280;44634;54.110;12.138;2023-03-04T08:12:38;101318.44;;;7.00;100.00
16481;BME280;44634;54.110;12.138;2023-03-04T08:15:06;101321.28;;;7.49;100.00
16481;BME280;44634;54.110;12.138;2023-03-04T08:17:34;101324.44;;;7.41;100.00
16481;BME280;44634;54.110;12.138;2023-03-04T08:20:02;101334.00;;;7.42;100.00
16481;BME280;44634;54.110;12.138;2023-03-04T08:22:30;101349.19;;;6.85;100.00
16481;BME280;44634;54.110;12.138;2023-03-04T08:24:59;101344.72;;;7.27;100.00
16481;BME280;44634;54.110;12.138;2023-03-04T08:27:27;101319.22;;;6.61;100.00
16481;BME280;44634;54.110;12.138;2023-03-04T08:29:55;101307.06;;;6.99;100.00
16481;BME280;44634;54.110;12.138;2023-03-04T08:32:23;101320.75;;;7.04;100.00
16481;BME280;44634;54.110;12.138;2023-03-04T08:34:51;101326.69;;;7.21;100.00
16481;BME280;44634;54.110;12.138;2023-03-04T08:37:21;101344.25;;;7.60;100.00
16481;BME280;44634;54.110;12.138;2023-03-04T08:39:49;101354.44;;;7.12;100.00
16481;BME280;44634;54.110;12.138;2023-03-04T08:42:18;101363.22;;;6.57;100.00
16481;BME280;44634;54.110;12.138;2023-03-04T08:44:46;101329.38;;;7.06;100.00
16481;BME280;44634;54.110;12.138;2023-03-04T08:47:14;101338.16;;;6.66;100.00
16481;BME280;44634;54.110;12.138;2023-03-04T08:49:41;101319.69;;;7.07;100.00
16481;BME280;44634;54.110;12.138;2023-03-04T08:52:09;101342.81;;;7.29;100.00
16481;BME280;44634;54.110;12.138;2023-03-04T08:54:37;101332.13;;;7.57;100.00
16481;BME280;44634;54.110;12.138;2023-03-04T08:57:04;101342.91;;;7.27;100.00
16481;BME280;44634;54.110;12.138;2023-03-04T08:59:34;101330.94;;;6.96;100.00
16481;BME280;44634;54.110;12.138;2023-03-04T09:02:04;101338.50;;;6.74;100.00
16481;BME280;44634;54.110;12.138;2023-03-04T09:04:31;101332.91;;;6.66;100.00
16481;BME280;44634;54.110;12.138;2023-03-04T09:06:59;101330.38;;;6.50;100.00
16481;BME280;44634;54.110;12.138;2023-03-04T09:09:27;101343.31;;;6.94;100.00
16481;BME280;44634;54.110;12.138;2023-03-04T09:11:55;101337.34;;;6.78;100.00
16481;BME280;44634;54.110;12.138;2023-03-04T09:14:24;101347.47;;;6.57;100.00
16481;BME280;44634;54.110;12.138;2023-03-04T09:16:53;101333.09;;;6.90;100.00
16481;BME280;44634;54.110;12.138;2023-03-04T09:19:20;101355.97;;;7.29;100.00
16481;BME280;44634;54.110;12.138;2023-03-04T09:21:49;101382.47;;;6.57;100.00
16481;BME280;44634;54.110;12.138;2023-03-04T09:24:17;101369.13;;;7.02;100.00
16481;BME280;44634;54.110;12.138;2023-03-04T09:26:49;101379.53;;;7.03;100.00
16481;BME280;44634;54.110;12.138;2023-03-04T09:29:17;101377.56;;;7.46;100.00
16481;BME280;44634;54.110;12.138;2023-03-04T09:31:44;101383.81;;;7.58;100.00
16481;BME280;44634;54.110;12.138;2023-03-04T09:34:17;101393.91;;;7.64;100.00
16481;BME280;44634;54.110;12.138;2023-03-04T09:36:46;101393.53;;;7.04;100.00
16481;BME280;44634;54.110;12.138;2023-03-04T09:39:14;101372.19;;;8.00;100.00
16481;BME280;44634;54.110;12.138;2023-03-04T09:41:43;101421.75;;;7.68;100.00
16481;BME280;44634;54.110;12.138;2023-03-04T09:44:17;101436.38;;;7.72;100.00
16481;BME280;44634;54.110;12.138;2023-03-04T09:46:49;101449.53;;;7.72;100.00
16481;BME280;44634;54.110;12.138;2023-03-04T09:49:19;101450.66;;;7.29;100.00
16481;BME280;44634;54.110;12.138;2023-03-04T09:51:56;101433.91;;;7.96;100.00
16481;BME280;44634;54.110;12.138;2023-03-04T09:54:53;101450.09;;;7.90;100.00
16481;BME280;44634;54.110;12.138;2023-03-04T09:57:27;101433.06;;;7.56;100.00
16481;BME280;44634;54.110;12.138;2023-03-04T10:00:08;101436.31;;;7.87;100.00
16481;BME280;44634;54.110;12.138;2023-03-04T10:02:50;101430.31;;;8.23;100.00
16481;BME280;44634;54.110;12.138;2023-03-04T10:05:26;101441.59;;;7.99;100.00
16481;BME280;44634;54.110;12.138;2023-03-04T10:07:58;101447.50;;;8.03;100.00
16481;BME280;44634;54.110;12.138;2023-03-04T10:10:30;101463.31;;;8.16;100.00
16481;BME280;44634;54.110;12.138;2023-03-04T10:13:00;101448.53;;;7.88;100.00
16481;BME280;44634;54.110;12.138;2023-03-04T10:15:34;101472.50;;;8.48;100.00
16481;BME280;44634;54.110;12.138;2023-03-04T10:18:11;101480.31;;;8.62;100.00
16481;BME280;44634;54.110;12.138;2023-03-04T10:20:51;101475.47;;;9.18;100.00
16481;BME280;44634;54.110;12.138;2023-03-04T10:23:22;101476.00;;;8.61;100.00
16481;BME280;44634;54.110;12.138;2023-03-04T10:25:52;101487.16;;;8.78;100.00
16481;BME280;44634;54.110;12.138;2023-03-04T10:28:23;101510.13;;;9.01;100.00
16481;BME280;44634;54.110;12.138;2023-03-04T10:30:57;101506.66;;;9.24;100.00
16481;BME280;44634;54.110;12.138;2023-03-04T10:33:28;101517.94;;;8.52;100.00
16481;BME280;44634;54.110;12.138;2023-03-04T10:36:02;101514.59;;;9.24;100.00
16481;BME280;44634;54.110;12.138;2023-03-04T10:38:32;101519.88;;;9.24;100.00
16481;BME280;44634;54.110;12.138;2023-03-04T10:41:01;101496.63;;;8.29;100.00
16481;BME280;44634;54.110;12.138;2023-03-04T10:43:38;101510.38;;;9.59;100.00
16481;BME280;44634;54.110;12.138;2023-03-04T10:46:14;101533.84;;;9.50;100.00
16481;BME280;44634;54.110;12.138;2023-03-04T10:48:44;101532.41;;;9.34;100.00
16481;BME280;44634;54.110;12.138;2023-03-04T10:51:18;101536.56;;;9.86;100.00
16481;BME280;44634;54.110;12.138;2023-03-04T10:53:48;101535.84;;;9.95;100.00
16481;BME280;44634;54.110;12.138;2023-03-04T10:56:31;101541.13;;;9.95;100.00
16481;BME280;44634;54.110;12.138;2023-03-04T10:59:24;101542.69;;;9.86;100.00
16481;BME280;44634;54.110;12.138;2023-03-04T11:01:57;101542.69;;;9.86;100.00
16481;BME280;44634;54.110;12.138;2023-03-04T11:04:27;101537.81;;;9.32;100.00
16481;BME280;44634;54.110;12.138;2023-03-04T11:06:56;101536.34;;;9.28;100.00
16481;BME280;44634;54.110;12.138;2023-03-04T11:09:25;101546.53;;;8.71;100.00
16481;BME280;44634;54.110;12.138;2023-03-04T11:11:55;101547.38;;;8.71;100.00
16481;BME280;44634;54.110;12.138;2023-03-04T11:14:26;101514.47;;;8.51;100.00
16481;BME280;44634;54.110;12.138;2023-03-04T11:16:57;101520.69;;;8.50;100.00
16481;BME280;44634;54.110;12.138;2023-03-04T11:19:29;101514.31;;;8.27;100.00
16481;BME280;44634;54.110;12.138;2023-03-04T11:22:01;101493.31;;;8.00;100.00
16481;BME280;44634;54.110;12.138;2023-03-04T11:24:32;101521.31;;;9.65;100.00
16481;BME280;44634;54.110;12.138;2023-03-04T11:27:03;101535.63;;;9.98;100.00
16481;BME280;44634;54.110;12.138;2023-03-04T11:29:35;101542.94;;;8.84;100.00
16481;BME280;44634;54.110;12.138;2023-03-04T11:32:08;101554.09;;;9.13;100.00
16481;BME280;44634;54.110;12.138;2023-03-04T11:34:41;101553.69;;;10.28;100.00
16481;BME280;44634;54.110;12.138;2023-03-04T11:37:17;101562.50;;;9.68;100.00
16481;BME280;44634;54.110;12.138;2023-03-04T11:39:51;101532.41;;;8.84;100.00
16481;BME280;44634;54.110;12.138;2023-03-04T11:42:27;101537.16;;;9.65;100.00
16481;BME280;44634;54.110;12.138;2023-03-04T11:44:59;101534.72;;;8.76;100.00
16481;BME280;44634;54.110;12.138;2023-03-04T11:47:49;101534.56;;;9.16;100.00
16481;BME280;44634;54.110;12.138;2023-03-04T11:50:28;101538.38;;;9.12;100.00
16481;BME280;44634;54.110;12.138;2023-03-04T11:56:15;101553.38;;;9.48;100.00
16481;BME280;44634;54.110;12.138;2023-03-04T12:01:45;101562.41;;;9.20;100.00
16481;BME280;44634;54.110;12.138;2023-03-04T12:04:39;101551.97;;;10.62;100.00
16481;BME280;44634;54.110;12.138;2023-03-04T12:07:21;101572.91;;;11.10;100.00
16481;BME280;44634;54.110;12.138;2023-03-04T12:10:04;101572.84;;;9.95;100.00
16481;BME280;44634;54.110;12.138;2023-03-04T12:12:44;101557.81;;;10.19;100.00
16481;BME280;44634;54.110;12.138;2023-03-04T12:15:18;101565.19;;;10.03;100.00
16481;BME280;44634;54.110;12.138;2023-03-04T12:18:12;101552.84;;;9.06;100.00
16481;BME280;44634;54.110;12.138;2023-03-04T12:20:57;101554.00;;;9.51;100.00
16481;BME280;44634;54.110;12.138;2023-03-04T12:23:55;101551.03;;;9.07;100.00
16481;BME280;44634;54.110;12.138;2023-03-04T12:26:37;101547.94;;;9.25;100.00
16481;BME280;44634;54.110;12.138;2023-03-04T12:29:12;101555.97;;;8.35;100.00
16481;BME280;44634;54.110;12.138;2023-03-04T12:31:44;101539.03;;;8.52;100.00
16481;BME280;44634;54.110;12.138;2023-03-04T12:34:29;101542.94;;;8.97;100.00
16481;BME280;44634;54.110;12.138;2023-03-04T12:37:14;101549.84;;;9.11;100.00
16481;BME280;44634;54.110;12.138;2023-03-04T12:40:00;101553.28;;;9.37;100.00
16481;BME280;44634;54.110;12.138;2023-03-04T12:42:40;101545.13;;;9.52;100.00
16481;BME280;44634;54.110;12.138;2023-03-04T12:45:19;101547.41;;;12.38;100.00
16481;BME280;44634;54.110;12.138;2023-03-04T12:47:55;101573.28;;;12.88;100.00
16481;BME280;44634;54.110;12.138;2023-03-04T12:50:39;101580.59;;;13.26;100.00
16481;BME280;44634;54.110;12.138;2023-03-04T12:53:16;101589.53;;;12.32;91.28
16481;BME280;44634;54.110;12.138;2023-03-04T12:55:48;101591.06;;;11.25;93.52
16481;BME280;44634;54.110;12.138;2023-03-04T12:58:20;101599.31;;;10.65;93.31
16481;BME280;44634;54.110;12.138;2023-03-04T13:00:58;101594.81;;;10.43;100.00
16481;BME280;44634;54.110;12.138;2023-03-04T13:03:36;101601.09;;;10.53;97.46